createdAt,value
2018-09-17T00:00:34.172Z,68.78
2018-09-17T00:03:02.580Z,69.26
2018-09-17T00:05:31.030Z,69.26
2018-09-17T00:07:59.514Z,69.24
2018-09-17T00:10:27.918Z,69.78
2018-09-17T00:12:56.365Z,69.43
2018-09-17T00:15:24.723Z,69.71
2018-09-17T00:17:53.145Z,69.50
2018-09-17T00:20:21.473Z,69.77
2018-09-17T00:22:50.100Z,69.54
2018-09-17T00:25:18.465Z,69.40
2018-09-17T00:27:46.804Z,69.66
2018-09-17T00:30:15.183Z,69.17
2018-09-17T00:32:43.587Z,68.82
2018-09-17T00:35:11.912Z,69.18
2018-09-17T00:37:40.484Z,68.98
2018-09-17T00:40:08.863Z,68.89
2018-09-17T00:42:37.200Z,68.66
2018-09-17T00:45:05.666Z,68.79
2018-09-17T00:47:34.127Z,68.71
2018-09-17T00:50:02.566Z,69.09
2018-09-17T00:52:31.462Z,69.27
2018-09-17T00:54:59.838Z,69.70
2018-09-17T00:57:28.234Z,69.54
2018-09-17T00:59:56.649Z,69.76
2018-09-17T01:02:24.974Z,69.83
2018-09-17T01:04:53.310Z,70.06
2018-09-17T01:07:21.942Z,69.99
2018-09-17T01:09:50.280Z,70.26
2018-09-17T01:12:18.630Z,70.44
2018-09-17T01:14:47.807Z,70.30
2018-09-17T01:17:16.181Z,70.50
2018-09-17T01:19:44.514Z,70.75
2018-09-17T01:22:13.000Z,70.57
2018-09-17T01:24:41.409Z,70.72
2018-09-17T01:27:09.806Z,70.51
2018-09-17T01:29:38.176Z,70.10
2018-09-17T01:32:06.536Z,70.09
2018-09-17T01:34:35.024Z,69.96
2018-09-17T01:37:03.401Z,69.76
2018-09-17T01:39:31.733Z,70.10
2018-09-17T01:42:00.164Z,70.03
2018-09-17T01:44:28.586Z,70.01
2018-09-17T01:46:56.928Z,70.43
2018-09-17T01:49:25.312Z,70.49
2018-09-17T01:51:53.724Z,70.78
2018-09-17T01:54:22.068Z,70.79
2018-09-17T01:56:50.530Z,70.31
2018-09-17T01:59:19.255Z,70.83
2018-09-17T02:01:48.583Z,71.08
2018-09-17T02:04:16.919Z,70.59
2018-09-17T02:06:45.483Z,70.55
2018-09-17T02:09:13.843Z,70.65
2018-09-17T02:11:42.201Z,70.63
2018-09-17T02:14:10.593Z,70.90
2018-09-17T02:16:39.001Z,70.70
2018-09-17T02:19:07.334Z,70.26
2018-09-17T02:21:36.564Z,70.44
2018-09-17T02:24:04.977Z,70.40
2018-09-17T02:26:33.368Z,70.23
2018-09-17T02:29:01.915Z,70.16
2018-09-17T02:31:30.255Z,70.35
2018-09-17T02:33:58.692Z,70.12
2018-09-17T02:36:27.070Z,70.00
2018-09-17T02:38:55.499Z,69.68
2018-09-17T02:41:23.917Z,69.71
2018-09-17T02:43:52.318Z,69.88
2018-09-17T02:46:20.670Z,69.68
2018-09-17T02:48:49.105Z,69.95
2018-09-17T02:51:17.825Z,70.01
2018-09-17T02:53:46.307Z,69.79
2018-09-17T02:56:14.627Z,70.06
2018-09-17T02:58:43.263Z,70.01
2018-09-17T03:01:11.773Z,70.04
2018-09-17T03:03:41.341Z,69.64
2018-09-17T03:06:09.719Z,70.00
2018-09-17T03:08:38.099Z,69.47
2018-09-17T03:11:06.665Z,69.58
2018-09-17T03:13:35.135Z,70.19
2018-09-17T03:16:03.573Z,70.29
2018-09-17T03:18:46.129Z,70.17
2018-09-17T03:21:14.462Z,70.00
2018-09-17T03:23:42.874Z,69.79
2018-09-17T03:26:12.328Z,69.65
2018-09-17T03:28:40.816Z,69.80
2018-09-17T03:31:09.157Z,69.87
2018-09-17T03:33:37.615Z,69.92
2018-09-17T03:36:06.300Z,69.91
2018-09-17T03:38:40.247Z,70.37
2018-09-17T03:41:09.706Z,69.69
2018-09-17T03:43:39.326Z,69.86
2018-09-17T03:46:07.854Z,69.74
2018-09-17T03:48:37.125Z,69.72
2018-09-17T03:51:06.422Z,69.66
2018-09-17T03:53:35.131Z,69.85
2018-09-17T03:56:03.550Z,70.03
2018-09-17T03:58:32.279Z,70.22
2018-09-17T04:01:01.618Z,69.84
2018-09-17T04:03:30.019Z,70.45
2018-09-17T04:05:58.429Z,70.00
2018-09-17T04:08:27.539Z,69.55
2018-09-17T04:10:55.950Z,69.66
2018-09-17T04:13:24.394Z,69.39
2018-09-17T04:15:53.003Z,69.33
2018-09-17T04:18:21.381Z,69.39
2018-09-17T04:20:49.709Z,69.48
2018-09-17T04:23:50.088Z,69.64
2018-09-17T04:26:18.488Z,69.83
2018-09-17T04:28:46.820Z,70.26
2018-09-17T04:31:15.206Z,70.51
2018-09-17T04:33:44.137Z,70.64
2018-09-17T04:36:13.270Z,70.72
2018-09-17T04:38:41.768Z,70.36
2018-09-17T04:41:10.176Z,70.81
2018-09-17T04:43:38.509Z,70.59
2018-09-17T04:46:07.092Z,70.91
2018-09-17T04:48:35.523Z,70.25
2018-09-17T04:51:04.112Z,70.26
2018-09-17T04:53:32.528Z,70.30
2018-09-17T04:56:00.874Z,70.35
2018-09-17T04:58:29.216Z,70.57
2018-09-17T05:00:57.608Z,70.23
2018-09-17T05:03:25.982Z,70.58
2018-09-17T05:05:54.354Z,70.20
2018-09-17T05:08:22.795Z,70.14
2018-09-17T05:10:51.241Z,70.80
2018-09-17T05:13:19.715Z,70.79
2018-09-17T05:15:48.129Z,70.79
2018-09-17T05:18:16.471Z,70.68
2018-09-17T05:20:44.845Z,71.16
2018-09-17T05:23:13.353Z,71.09
2018-09-17T05:25:41.699Z,71.17
2018-09-17T05:28:10.028Z,71.31
2018-09-17T05:30:38.478Z,71.46
2018-09-17T05:33:06.815Z,71.80
2018-09-17T05:35:35.228Z,71.19
2018-09-17T05:38:03.640Z,70.95
2018-09-17T05:40:31.952Z,71.03
2018-09-17T05:43:00.372Z,70.61
2018-09-17T05:45:28.786Z,71.31
2018-09-17T05:47:57.144Z,71.00
2018-09-17T05:50:25.550Z,71.07
2018-09-17T05:52:54.017Z,71.45
2018-09-17T05:55:22.621Z,71.34
2018-09-17T05:57:50.962Z,71.56
2018-09-17T06:00:19.725Z,71.39
2018-09-17T06:02:48.163Z,71.38
2018-09-17T06:05:16.581Z,71.59
2018-09-17T06:07:44.973Z,71.65
2018-09-17T06:10:14.859Z,71.74
2018-09-17T06:12:44.652Z,71.39
2018-09-17T06:15:13.368Z,71.61
2018-09-17T06:17:41.804Z,71.36
2018-09-17T06:20:10.188Z,71.26
2018-09-17T06:22:38.671Z,71.65
2018-09-17T06:25:07.096Z,71.16
2018-09-17T06:27:35.568Z,70.97
2018-09-17T06:30:04.050Z,70.90
2018-09-17T06:32:32.440Z,70.84
2018-09-17T06:35:00.828Z,71.04
2018-09-17T06:37:29.357Z,71.06
2018-09-17T06:39:57.696Z,71.54
2018-09-17T06:42:26.152Z,71.35
2018-09-17T06:44:54.570Z,71.08
2018-09-17T06:47:23.012Z,70.91
2018-09-17T06:49:52.576Z,71.57
2018-09-17T06:52:20.966Z,71.69
2018-09-17T06:54:49.304Z,71.57
2018-09-17T06:57:17.649Z,71.68
2018-09-17T06:59:46.026Z,71.63
2018-09-17T07:02:14.496Z,71.50
2018-09-17T07:04:43.011Z,71.31
2018-09-17T07:07:11.560Z,71.25
2018-09-17T07:09:39.883Z,70.88
2018-09-17T07:12:08.234Z,71.23
2018-09-17T07:14:36.644Z,70.88
2018-09-17T07:17:05.214Z,71.25
2018-09-17T07:19:33.555Z,70.67
2018-09-17T07:22:01.989Z,69.92
2018-09-17T07:24:30.343Z,69.65
2018-09-17T07:26:59.352Z,69.45
2018-09-17T07:29:27.989Z,69.38
2018-09-17T07:31:56.388Z,69.31
2018-09-17T07:34:24.725Z,68.76
2018-09-17T07:36:53.099Z,69.02
2018-09-17T07:39:21.506Z,68.84
2018-09-17T07:41:49.886Z,68.36
2018-09-17T07:44:18.247Z,68.23
2018-09-17T07:46:46.668Z,67.34
2018-09-17T07:49:15.037Z,67.52
2018-09-17T07:51:43.408Z,67.26
2018-09-17T07:54:11.767Z,67.19
2018-09-17T07:56:40.180Z,66.60
2018-09-17T07:59:08.732Z,66.40
2018-09-17T08:01:37.068Z,66.14
2018-09-17T08:04:05.463Z,65.94
2018-09-17T08:06:33.937Z,66.26
2018-09-17T08:09:02.293Z,65.66
2018-09-17T08:11:30.632Z,65.53
2018-09-17T08:13:59.164Z,65.71
2018-09-17T08:16:27.592Z,65.63
2018-09-17T08:18:55.940Z,65.72
2018-09-17T08:21:24.452Z,64.97
2018-09-17T08:23:52.849Z,64.69
2018-09-17T08:26:21.227Z,64.98
2018-09-17T08:28:51.032Z,64.50
2018-09-17T08:31:19.459Z,64.70
2018-09-17T08:33:47.787Z,64.40
2018-09-17T08:36:16.292Z,64.26
2018-09-17T08:38:44.635Z,64.08
2018-09-17T08:41:13.095Z,63.78
2018-09-17T08:43:41.526Z,63.69
2018-09-17T08:46:09.876Z,63.30
2018-09-17T08:48:38.211Z,62.86
2018-09-17T08:51:06.781Z,62.93
2018-09-17T08:53:35.124Z,62.90
2018-09-17T08:56:08.864Z,61.97
2018-09-17T08:58:42.604Z,61.62
2018-09-17T09:01:16.288Z,62.08
2018-09-17T09:03:49.927Z,61.75
2018-09-17T09:06:20.506Z,61.71
2018-09-17T09:08:49.515Z,62.09
2018-09-17T09:11:26.998Z,61.72
2018-09-17T09:13:56.411Z,61.33
2018-09-17T09:16:25.606Z,61.32
2018-09-17T09:18:54.057Z,61.20
2018-09-17T09:21:22.412Z,60.70
2018-09-17T09:23:50.785Z,61.06
2018-09-17T09:26:19.399Z,60.23
2018-09-17T09:28:47.707Z,60.39
2018-09-17T09:31:16.125Z,59.96
2018-09-17T09:33:44.694Z,59.83
2018-09-17T09:36:13.187Z,59.56
2018-09-17T09:38:41.506Z,59.87
2018-09-17T09:41:09.989Z,59.02
2018-09-17T09:43:38.434Z,58.50
2018-09-17T09:46:06.995Z,58.60
2018-09-17T09:48:35.402Z,58.73
2018-09-17T09:51:03.985Z,58.88
2018-09-17T09:53:32.439Z,58.90
2018-09-17T09:56:00.918Z,58.77
2018-09-17T09:58:29.269Z,58.79
2018-09-17T10:01:03.043Z,59.25
2018-09-17T10:03:36.618Z,58.67
2018-09-17T10:06:05.132Z,57.83
2018-09-17T10:08:37.729Z,57.25
2018-09-17T10:11:11.613Z,57.08
2018-09-17T10:13:45.295Z,57.35
2018-09-17T10:16:18.148Z,57.09
2018-09-17T10:18:51.903Z,57.08
2018-09-17T10:21:20.305Z,57.33
2018-09-17T10:23:48.748Z,57.66
2018-09-17T10:26:17.107Z,57.12
2018-09-17T10:28:45.525Z,57.48
2018-09-17T10:31:14.340Z,57.64
2018-09-17T10:33:42.663Z,56.82
2018-09-17T10:36:11.323Z,57.45
2018-09-17T10:38:39.638Z,57.18
2018-09-17T10:41:07.996Z,56.23
2018-09-17T10:43:36.579Z,56.51
2018-09-17T10:46:04.979Z,55.83
2018-09-17T10:48:33.321Z,55.41
2018-09-17T10:51:01.915Z,53.87
2018-09-17T10:53:30.245Z,53.68
2018-09-17T10:55:58.671Z,54.17
2018-09-17T10:58:27.103Z,54.02
2018-09-17T11:00:55.455Z,53.74
2018-09-17T11:03:23.892Z,53.54
2018-09-17T11:05:52.379Z,52.51
2018-09-17T11:08:21.042Z,51.87
2018-09-17T11:10:49.337Z,51.41
2018-09-17T11:13:17.779Z,50.95
2018-09-17T11:15:48.288Z,50.23
2018-09-17T11:18:17.836Z,49.61
2018-09-17T11:20:47.133Z,49.88
2018-09-17T11:23:15.485Z,49.26
2018-09-17T11:25:44.088Z,49.36
2018-09-17T11:28:12.467Z,48.47
2018-09-17T11:30:40.883Z,48.99
2018-09-17T11:33:09.218Z,49.37
2018-09-17T11:35:37.665Z,49.06
2018-09-17T11:38:06.019Z,47.81
2018-09-17T11:40:34.379Z,47.81
2018-09-17T11:43:02.855Z,49.04
2018-09-17T11:45:31.213Z,48.75
2018-09-17T11:47:59.634Z,47.27
2018-09-17T11:50:28.195Z,47.99
2018-09-17T11:52:56.547Z,47.64
2018-09-17T11:55:24.983Z,47.77
2018-09-17T11:57:53.514Z,47.97
2018-09-17T12:00:27.216Z,47.32
2018-09-17T12:03:00.844Z,46.68
2018-09-17T12:05:34.531Z,47.01
2018-09-17T12:08:07.072Z,47.91
2018-09-17T12:10:35.504Z,46.93
2018-09-17T12:13:03.911Z,46.74
2018-09-17T12:15:32.312Z,46.50
2018-09-17T12:18:00.750Z,46.01
2018-09-17T12:20:29.084Z,46.94
2018-09-17T12:22:57.782Z,46.38
2018-09-17T12:25:26.219Z,46.04
2018-09-17T12:27:54.570Z,45.35
2018-09-17T12:30:22.936Z,44.13
2018-09-17T12:32:51.263Z,44.44
2018-09-17T12:35:19.774Z,44.00
2018-09-17T12:37:48.175Z,44.93
2018-09-17T12:40:16.580Z,45.05
2018-09-17T12:42:44.908Z,44.22
2018-09-17T12:45:13.536Z,43.23
2018-09-17T12:47:41.913Z,43.30
2018-09-17T12:50:10.310Z,43.38
2018-09-17T12:52:38.864Z,43.27
2018-09-17T12:55:07.283Z,43.11
2018-09-17T12:57:35.736Z,43.06
2018-09-17T13:00:04.499Z,42.64
2018-09-17T13:02:32.807Z,43.33
2018-09-17T13:05:01.191Z,42.88
2018-09-17T13:07:29.577Z,42.93
2018-09-17T13:09:57.915Z,43.03
2018-09-17T13:12:26.412Z,42.84
2018-09-17T13:14:55.326Z,43.22
2018-09-17T13:17:23.535Z,43.56
2018-09-17T13:19:51.885Z,43.00
2018-09-17T13:22:20.273Z,43.00
2018-09-17T13:24:48.712Z,43.14
2018-09-17T13:27:17.755Z,42.28
2018-09-17T13:29:46.267Z,43.07
2018-09-17T13:32:14.749Z,42.62
2018-09-17T13:34:43.087Z,42.21
2018-09-17T13:37:11.872Z,42.25
2018-09-17T13:39:40.602Z,42.11
2018-09-17T13:42:08.921Z,42.18
2018-09-17T13:44:37.569Z,42.03
2018-09-17T13:47:05.959Z,42.36
2018-09-17T13:49:34.415Z,41.75
2018-09-17T13:52:03.029Z,41.15
2018-09-17T13:54:31.987Z,40.74
2018-09-17T13:57:00.327Z,40.67
2018-09-17T13:59:28.842Z,40.50
2018-09-17T14:01:57.179Z,40.09
2018-09-17T14:04:25.651Z,39.89
2018-09-17T14:06:53.942Z,39.80
2018-09-17T14:09:22.359Z,40.29
2018-09-17T14:11:50.727Z,40.03
2018-09-17T14:14:19.290Z,40.61
2018-09-17T14:16:48.703Z,40.41
2018-09-17T14:19:17.199Z,40.73
2018-09-17T14:21:45.730Z,41.02
2018-09-17T14:24:14.119Z,40.68
2018-09-17T14:26:42.475Z,41.21
2018-09-17T14:29:11.247Z,40.69
2018-09-17T14:31:51.615Z,40.69
2018-09-17T14:34:20.141Z,41.20
2018-09-17T14:36:48.465Z,41.78
2018-09-17T14:39:16.841Z,41.62
2018-09-17T14:41:45.516Z,41.31
2018-09-17T14:44:13.957Z,41.41
2018-09-17T14:46:42.365Z,41.58
2018-09-17T14:49:10.757Z,41.72
2018-09-17T14:51:39.299Z,42.15
2018-09-17T14:54:07.627Z,41.94
2018-09-17T14:56:35.997Z,41.76
2018-09-17T14:59:04.349Z,41.65
2018-09-17T15:01:32.732Z,42.06
2018-09-17T15:04:01.115Z,42.42
2018-09-17T15:06:29.412Z,42.43
2018-09-17T15:08:57.739Z,42.74
2018-09-17T15:11:26.334Z,42.65
2018-09-17T15:13:54.840Z,43.13
2018-09-17T15:16:23.280Z,43.52
2018-09-17T15:18:51.585Z,43.81
2018-09-17T15:21:19.915Z,44.19
2018-09-17T15:23:49.201Z,44.22
2018-09-17T15:26:17.520Z,44.35
2018-09-17T15:28:45.850Z,44.38
2018-09-17T15:31:14.286Z,44.16
2018-09-17T15:33:42.653Z,44.03
2018-09-17T15:36:11.115Z,43.76
2018-09-17T15:38:40.420Z,43.40
2018-09-17T15:41:08.935Z,43.54
2018-09-17T15:43:37.266Z,43.31
2018-09-17T15:46:05.649Z,43.44
2018-09-17T15:48:33.975Z,43.45
2018-09-17T15:51:02.815Z,43.46
2018-09-17T15:53:31.459Z,43.48
2018-09-17T15:56:00.173Z,43.30
2018-09-17T15:58:28.491Z,43.58
2018-09-17T16:00:56.837Z,43.52
2018-09-17T16:03:25.245Z,43.06
2018-09-17T16:05:53.680Z,43.51
2018-09-17T16:08:22.042Z,43.28
2018-09-17T16:10:50.467Z,43.12
2018-09-17T16:13:18.876Z,43.04
2018-09-17T16:15:48.432Z,43.27
2018-09-17T16:18:17.892Z,43.91
2018-09-17T16:20:46.333Z,43.89
2018-09-17T16:23:14.689Z,44.44
2018-09-17T16:25:44.426Z,44.06
2018-09-17T16:28:12.872Z,44.09
2018-09-17T16:30:41.274Z,44.45
2018-09-17T16:33:09.725Z,44.08
2018-09-17T16:35:38.123Z,44.32
2018-09-17T16:38:06.503Z,44.80
2018-09-17T16:40:35.071Z,44.67
2018-09-17T16:43:03.411Z,45.34
2018-09-17T16:45:31.765Z,45.40
2018-09-17T16:48:00.186Z,45.17
2018-09-17T16:50:28.517Z,45.89
2018-09-17T16:52:57.015Z,45.48
2018-09-17T16:55:25.475Z,45.86
2018-09-17T16:57:53.995Z,45.66
2018-09-17T17:00:22.335Z,46.34
2018-09-17T17:02:51.089Z,46.07
2018-09-17T17:05:19.580Z,46.13
2018-09-17T17:07:47.967Z,46.97
2018-09-17T17:10:16.423Z,46.79
2018-09-17T17:12:44.739Z,47.16
2018-09-17T17:15:13.073Z,47.41
2018-09-17T17:17:41.681Z,47.49
2018-09-17T17:20:10.107Z,47.55
2018-09-17T17:22:38.480Z,47.68
2018-09-17T17:25:06.986Z,47.99
2018-09-17T17:27:35.340Z,48.28
2018-09-17T17:30:03.760Z,48.38
2018-09-17T17:32:32.198Z,48.80
2018-09-17T17:35:00.645Z,49.38
2018-09-17T17:37:29.026Z,49.79
2018-09-17T17:39:57.571Z,49.87
2018-09-17T17:42:25.918Z,51.46
2018-09-17T17:44:54.822Z,52.12
2018-09-17T17:47:23.266Z,52.48
2018-09-17T17:49:51.772Z,53.23
2018-09-17T17:52:20.345Z,53.81
2018-09-17T17:54:48.741Z,53.45
2018-09-17T17:57:17.191Z,53.64
2018-09-17T17:59:45.657Z,53.84
2018-09-17T18:02:14.278Z,54.55
2018-09-17T18:04:42.770Z,54.78
2018-09-17T18:07:11.218Z,55.37
2018-09-17T18:09:39.627Z,55.59
2018-09-17T18:12:07.988Z,55.93
2018-09-17T18:14:36.338Z,55.93
2018-09-17T18:17:04.814Z,56.21
2018-09-17T18:19:33.210Z,56.57
2018-09-17T18:22:01.544Z,56.75
2018-09-17T18:24:30.844Z,56.49
2018-09-17T18:26:59.322Z,56.32
2018-09-17T18:29:27.876Z,57.01
2018-09-17T18:31:56.458Z,57.01
2018-09-17T18:34:24.924Z,56.91
2018-09-17T18:36:53.433Z,57.36
2018-09-17T18:39:22.013Z,56.99
2018-09-17T18:41:50.324Z,57.49
2018-09-17T18:44:18.721Z,57.17
2018-09-17T18:46:47.140Z,57.55
2018-09-17T18:49:15.577Z,57.19
2018-09-17T18:51:44.114Z,57.28
2018-09-17T18:54:12.541Z,57.56
2018-09-17T18:56:41.006Z,57.77
2018-09-17T18:59:09.360Z,57.75
2018-09-17T19:01:37.848Z,58.44
2018-09-17T19:04:06.377Z,58.10
2018-09-17T19:06:34.752Z,58.65
2018-09-17T19:09:03.204Z,58.76
2018-09-17T19:11:31.629Z,58.85
2018-09-17T19:14:05.488Z,59.40
2018-09-17T19:16:39.966Z,59.28
2018-09-17T19:19:08.518Z,58.92
2018-09-17T19:21:42.429Z,59.51
2018-09-17T19:24:10.894Z,59.99
2018-09-17T19:26:39.328Z,60.11
2018-09-17T19:29:13.099Z,60.42
2018-09-17T19:31:41.458Z,60.95
2018-09-17T19:34:09.889Z,61.24
2018-09-17T19:36:38.279Z,61.13
2018-09-17T19:39:12.660Z,61.57
2018-09-17T19:41:41.900Z,61.44
2018-09-17T19:44:10.272Z,61.08
2018-09-17T19:46:38.748Z,61.01
2018-09-17T19:49:07.209Z,60.74
2018-09-17T19:51:41.034Z,60.46
2018-09-17T19:54:09.605Z,61.09
2018-09-17T19:56:38.168Z,60.96
2018-09-17T19:59:11.802Z,60.86
2018-09-17T20:01:40.234Z,60.98
2018-09-17T20:04:13.900Z,61.07
2018-09-17T20:06:42.310Z,60.71
2018-09-17T20:09:11.540Z,61.14
2018-09-17T20:11:40.353Z,61.00
2018-09-17T20:14:08.920Z,60.98
2018-09-17T20:16:37.296Z,60.65
2018-09-17T20:19:05.732Z,61.15
2018-09-17T20:21:34.108Z,61.25
2018-09-17T20:24:02.484Z,60.86
2018-09-17T20:26:30.856Z,61.40
2018-09-17T20:28:59.260Z,61.28
2018-09-17T20:31:27.677Z,61.26
2018-09-17T20:33:56.203Z,60.99
2018-09-17T20:36:24.571Z,61.32
2018-09-17T20:38:53.065Z,61.21
2018-09-17T20:41:21.487Z,61.58
2018-09-17T20:43:49.915Z,61.13
2018-09-17T20:46:18.269Z,61.17
2018-09-17T20:48:46.886Z,61.24
2018-09-17T20:51:15.179Z,61.42
2018-09-17T20:53:43.600Z,61.66
2018-09-17T20:56:12.166Z,61.82
2018-09-17T20:58:40.501Z,61.96
2018-09-17T21:01:09.359Z,61.99
2018-09-17T21:03:37.644Z,62.40
2018-09-17T21:06:06.117Z,62.09
2018-09-17T21:08:34.519Z,62.55
2018-09-17T21:11:03.241Z,62.59
2018-09-17T21:13:31.777Z,62.49
2018-09-17T21:16:00.095Z,62.58
2018-09-17T21:18:28.643Z,62.72
2018-09-17T21:20:57.037Z,62.34
2018-09-17T21:23:25.385Z,62.26
2018-09-17T21:25:53.895Z,62.12
2018-09-17T21:28:22.279Z,62.57
2018-09-17T21:30:50.773Z,62.40
2018-09-17T21:33:19.172Z,62.41
2018-09-17T21:35:47.603Z,62.37
2018-09-17T21:38:16.001Z,62.36
2018-09-17T21:40:44.486Z,62.40
2018-09-17T21:43:12.919Z,62.26
2018-09-17T21:45:41.165Z,62.47
2018-09-17T21:48:09.635Z,62.82
2018-09-17T21:50:37.956Z,62.86
2018-09-17T21:53:06.435Z,62.45
2018-09-17T21:55:35.039Z,62.56
2018-09-17T21:58:03.359Z,62.28
2018-09-17T22:01:03.634Z,62.60
2018-09-17T22:03:33.504Z,62.59
2018-09-17T22:06:01.864Z,62.64
2018-09-17T22:08:30.828Z,62.84
2018-09-17T22:10:59.244Z,63.44
2018-09-17T22:13:28.104Z,63.60
2018-09-17T22:15:56.517Z,63.79
2018-09-17T22:18:24.964Z,63.58
2018-09-17T22:20:53.338Z,63.56
2018-09-17T22:23:21.827Z,64.02
2018-09-17T22:25:50.160Z,64.09
2018-09-17T22:28:18.488Z,64.23
2018-09-17T22:30:46.918Z,64.14
2018-09-17T22:33:15.248Z,63.71
2018-09-17T22:35:43.640Z,63.79
2018-09-17T22:38:12.040Z,64.29
2018-09-17T22:40:41.232Z,64.05
2018-09-17T22:43:09.560Z,64.08
2018-09-17T22:45:37.988Z,64.30
2018-09-17T22:48:06.440Z,64.24
2018-09-17T22:50:34.803Z,64.78
2018-09-17T22:53:03.372Z,64.46
2018-09-17T22:55:31.711Z,64.54
2018-09-17T22:58:00.052Z,64.90
2018-09-17T23:00:28.448Z,64.79
2018-09-17T23:02:56.801Z,64.36
2018-09-17T23:05:25.176Z,64.28
2018-09-17T23:07:53.659Z,64.47
2018-09-17T23:10:21.994Z,64.16
2018-09-17T23:12:50.403Z,63.76
2018-09-17T23:15:18.894Z,63.81
2018-09-17T23:17:47.275Z,64.35
2018-09-17T23:20:15.688Z,64.08
2018-09-17T23:22:44.100Z,64.01
2018-09-17T23:25:12.444Z,63.90
2018-09-17T23:27:40.791Z,64.04
2018-09-17T23:30:09.178Z,64.40
2018-09-17T23:32:37.584Z,64.49
2018-09-17T23:35:06.020Z,64.58
2018-09-17T23:37:34.446Z,64.86
2018-09-17T23:40:02.853Z,64.84
2018-09-17T23:42:31.163Z,65.11
2018-09-17T23:44:59.582Z,65.48
2018-09-17T23:47:28.102Z,65.49
2018-09-17T23:49:56.496Z,65.07
2018-09-17T23:52:24.912Z,64.89
2018-09-17T23:54:53.460Z,64.75
2018-09-17T23:57:21.781Z,64.02
2018-09-17T23:59:50.161Z,64.37
